sensor_id;sensor_type;location;lat;lon;timestamp;temperature;humidity
25640;DHT22;13497;48.322;16.204;2023-04-21T00:02:24;7.90;99.90
25640;DHT22;13497;48.322;16.204;2023-04-21T00:04:50;8.00;99.90
25640;DHT22;13497;48.322;16.204;2023-04-21T00:07:16;8.00;99.90
25640;DHT22;13497;48.322;16.204;2023-04-21T00:09:44;7.90;99.90
25640;DHT22;13497;48.322;16.204;2023-04-21T00:12:10;7.80;99.90
25640;DHT22;13497;48.322;16.204;2023-04-21T00:14:35;7.80;99.90
25640;DHT22;13497;48.322;16.204;2023-04-21T00:17:01;7.80;99.90
25640;DHT22;13497;48.322;16.204;2023-04-21T00:19:26;7.80;99.90
25640;DHT22;13497;48.322;16.204;2023-04-21T00:21:54;7.90;99.90
25640;DHT22;13497;48.322;16.204;2023-04-21T00:24:23;8.00;99.90
25640;DHT22;13497;48.322;16.204;2023-04-21T00:26:49;8.00;99.90
25640;DHT22;13497;48.322;16.204;2023-04-21T00:29:15;8.10;99.90
25640;DHT22;13497;48.322;16.204;2023-04-21T00:31:41;8.00;99.90
25640;DHT22;13497;48.322;16.204;2023-04-21T00:34:06;8.00;99.90
25640;DHT22;13497;48.322;16.204;2023-04-21T00:36:32;7.80;99.90
25640;DHT22;13497;48.322;16.204;2023-04-21T00:38:57;7.80;99.90
25640;DHT22;13497;48.322;16.204;2023-04-21T00:41:23;7.80;99.90
25640;DHT22;13497;48.322;16.204;2023-04-21T00:44:10;7.70;99.90
25640;DHT22;13497;48.322;16.204;2023-04-21T00:46:36;7.60;99.90
25640;DHT22;13497;48.322;16.204;2023-04-21T00:49:04;7.60;99.90
25640;DHT22;13497;48.322;16.204;2023-04-21T00:51:32;7.70;99.90
25640;DHT22;13497;48.322;16.204;2023-04-21T00:53:59;7.80;99.90
25640;DHT22;13497;48.322;16.204;2023-04-21T00:56:29;7.90;99.90
25640;DHT22;13497;48.322;16.204;2023-04-21T00:58:57;7.90;99.90
25640;DHT22;13497;48.322;16.204;2023-04-21T01:01:23;7.90;99.90
25640;DHT22;13497;48.322;16.204;2023-04-21T01:03:49;8.10;99.90
25640;DHT22;13497;48.322;16.204;2023-04-21T01:06:16;8.20;99.90
25640;DHT22;13497;48.322;16.204;2023-04-21T01:08:42;8.20;99.90
25640;DHT22;13497;48.322;16.204;2023-04-21T01:11:10;8.20;99.90
25640;DHT22;13497;48.322;16.204;2023-04-21T01:13:37;8.10;99.90
25640;DHT22;13497;48.322;16.204;2023-04-21T01:16:03;8.00;99.90
25640;DHT22;13497;48.322;16.204;2023-04-21T01:18:29;8.10;99.90
25640;DHT22;13497;48.322;16.204;2023-04-21T01:20:55;8.10;99.90
25640;DHT22;13497;48.322;16.204;2023-04-21T01:23:22;8.10;99.90
25640;DHT22;13497;48.322;16.204;2023-04-21T01:25:50;8.10;99.90
25640;DHT22;13497;48.322;16.204;2023-04-21T01:28:24;8.00;99.90
25640;DHT22;13497;48.322;16.204;2023-04-21T01:30:50;8.10;99.90
25640;DHT22;13497;48.322;16.204;2023-04-21T01:33:17;8.10;99.90
25640;DHT22;13497;48.322;16.204;2023-04-21T01:35:44;8.20;99.90
25640;DHT22;13497;48.322;16.204;2023-04-21T01:38:09;8.30;99.90
25640;DHT22;13497;48.322;16.204;2023-04-21T01:40:35;8.30;99.90
25640;DHT22;13497;48.322;16.204;2023-04-21T01:43:03;8.30;99.90
25640;DHT22;13497;48.322;16.204;2023-04-21T01:45:30;8.20;99.90
25640;DHT22;13497;48.322;16.204;2023-04-21T01:47:55;8.30;99.90
25640;DHT22;13497;48.322;16.204;2023-04-21T01:50:21;8.40;99.90
25640;DHT22;13497;48.322;16.204;2023-04-21T01:52:47;8.40;99.90
25640;DHT22;13497;48.322;16.204;2023-04-21T01:55:12;8.30;99.90
25640;DHT22;13497;48.322;16.204;2023-04-21T01:57:39;8.20;99.90
25640;DHT22;13497;48.322;16.204;2023-04-21T02:00:05;8.20;99.90
25640;DHT22;13497;48.322;16.204;2023-04-21T02:02:31;8.20;99.90
25640;DHT22;13497;48.322;16.204;2023-04-21T02:04:57;8.30;99.90
25640;DHT22;13497;48.322;16.204;2023-04-21T02:07:22;8.20;99.90
25640;DHT22;13497;48.322;16.204;2023-04-21T02:09:48;8.30;99.90
25640;DHT22;13497;48.322;16.204;2023-04-21T02:12:14;8.20;99.90
25640;DHT22;13497;48.322;16.204;2023-04-21T02:14:39;8.10;99.90
25640;DHT22;13497;48.322;16.204;2023-04-21T02:17:05;8.10;99.90
25640;DHT22;13497;48.322;16.204;2023-04-21T02:19:31;8.10;99.90
25640;DHT22;13497;48.322;16.204;2023-04-21T02:21:57;8.00;99.90
25640;DHT22;13497;48.322;16.204;2023-04-21T02:24:22;7.90;99.90
25640;DHT22;13497;48.322;16.204;2023-04-21T02:26:48;8.00;99.90
25640;DHT22;13497;48.322;16.204;2023-04-21T02:29:14;8.00;99.90
25640;DHT22;13497;48.322;16.204;2023-04-21T02:31:39;8.10;99.90
25640;DHT22;13497;48.322;16.204;2023-04-21T02:34:06;8.10;99.90
25640;DHT22;13497;48.322;16.204;2023-04-21T02:36:32;8.20;99.90
25640;DHT22;13497;48.322;16.204;2023-04-21T02:38:58;8.10;99.90
25640;DHT22;13497;48.322;16.204;2023-04-21T02:41:23;8.10;99.90
25640;DHT22;13497;48.322;16.204;2023-04-21T02:43:49;8.20;99.90
25640;DHT22;13497;48.322;16.204;2023-04-21T02:46:15;8.20;99.90
25640;DHT22;13497;48.322;16.204;2023-04-21T02:48:40;8.20;99.90
25640;DHT22;13497;48.322;16.204;2023-04-21T02:51:12;8.30;99.90
25640;DHT22;13497;48.322;16.204;2023-04-21T02:53:38;8.30;99.90
25640;DHT22;13497;48.322;16.204;2023-04-21T02:56:06;8.40;99.90
25640;DHT22;13497;48.322;16.204;2023-04-21T02:58:33;8.40;99.90
25640;DHT22;13497;48.322;16.204;2023-04-21T03:01:00;8.40;99.90
25640;DHT22;13497;48.322;16.204;2023-04-21T03:03:25;8.50;99.90
25640;DHT22;13497;48.322;16.204;2023-04-21T03:06:03;8.60;99.90
25640;DHT22;13497;48.322;16.204;2023-04-21T03:08:29;8.60;99.90
25640;DHT22;13497;48.322;16.204;2023-04-21T03:10:55;8.50;99.90
25640;DHT22;13497;48.322;16.204;2023-04-21T03:13:21;8.40;99.90
25640;DHT22;13497;48.322;16.204;2023-04-21T03:15:48;8.40;99.90
25640;DHT22;13497;48.322;16.204;2023-04-21T03:18:14;8.30;99.90
25640;DHT22;13497;48.322;16.204;2023-04-21T03:20:40;8.30;99.90
25640;DHT22;13497;48.322;16.204;2023-04-21T03:23:05;8.30;99.90
25640;DHT22;13497;48.322;16.204;2023-04-21T03:25:31;8.40;99.90
25640;DHT22;13497;48.322;16.204;2023-04-21T03:27:57;8.50;99.90
25640;DHT22;13497;48.322;16.204;2023-04-21T03:30:23;8.50;99.90
25640;DHT22;13497;48.322;16.204;2023-04-21T03:32:51;8.70;99.90
25640;DHT22;13497;48.322;16.204;2023-04-21T03:35:16;8.70;99.90
25640;DHT22;13497;48.322;16.204;2023-04-21T03:37:42;8.70;99.90
25640;DHT22;13497;48.322;16.204;2023-04-21T03:40:08;8.70;99.90
25640;DHT22;13497;48.322;16.204;2023-04-21T03:42:35;8.70;99.90
25640;DHT22;13497;48.322;16.204;2023-04-21T03:45:05;8.80;99.90
25640;DHT22;13497;48.322;16.204;2023-04-21T03:47:31;8.80;99.90
25640;DHT22;13497;48.322;16.204;2023-04-21T03:49:57;8.80;99.90
25640;DHT22;13497;48.322;16.204;2023-04-21T03:52:23;8.70;99.90
25640;DHT22;13497;48.322;16.204;2023-04-21T03:54:48;8.60;99.90
25640;DHT22;13497;48.322;16.204;2023-04-21T03:57:14;8.70;99.90
25640;DHT22;13497;48.322;16.204;2023-04-21T03:59:40;8.60;99.90
25640;DHT22;13497;48.322;16.204;2023-04-21T04:02:06;8.50;99.90
25640;DHT22;13497;48.322;16.204;2023-04-21T04:04:32;8.50;99.90
25640;DHT22;13497;48.322;16.204;2023-04-21T04:06:57;8.60;99.90
25640;DHT22;13497;48.322;16.204;2023-04-21T04:09:23;8.50;99.90
25640;DHT22;13497;48.322;16.204;2023-04-21T04:11:49;8.60;99.90
25640;DHT22;13497;48.322;16.204;2023-04-21T04:14:15;8.50;99.90
25640;DHT22;13497;48.322;16.204;2023-04-21T04:16:41;8.60;99.90
25640;DHT22;13497;48.322;16.204;2023-04-21T04:19:07;8.60;99.90
25640;DHT22;13497;48.322;16.204;2023-04-21T04:21:33;8.60;99.90
25640;DHT22;13497;48.322;16.204;2023-04-21T04:23:59;8.60;99.90
25640;DHT22;13497;48.322;16.204;2023-04-21T04:26:27;8.70;99.90
25640;DHT22;13497;48.322;16.204;2023-04-21T04:28:53;8.60;99.90
25640;DHT22;13497;48.322;16.204;2023-04-21T04:31:23;8.60;99.90
25640;DHT22;13497;48.322;16.204;2023-04-21T04:33:50;8.70;99.90
25640;DHT22;13497;48.322;16.204;2023-04-21T04:36:16;8.90;99.90
25640;DHT22;13497;48.322;16.204;2023-04-21T04:38:42;9.00;99.90
25640;DHT22;13497;48.322;16.204;2023-04-21T04:41:07;9.10;99.90
25640;DHT22;13497;48.322;16.204;2023-04-21T04:43:34;9.30;99.90
25640;DHT22;13497;48.322;16.204;2023-04-21T04:46:03;9.90;99.90
25640;DHT22;13497;48.322;16.204;2023-04-21T04:48:30;10.70;99.90
25640;DHT22;13497;48.322;16.204;2023-04-21T04:50:55;11.50;99.90
25640;DHT22;13497;48.322;16.204;2023-04-21T04:53:21;11.90;99.90
25640;DHT22;13497;48.322;16.204;2023-04-21T04:55:47;12.00;99.90
25640;DHT22;13497;48.322;16.204;2023-04-21T04:58:12;12.30;99.90
25640;DHT22;13497;48.322;16.204;2023-04-21T05:00:38;12.50;99.90
25640;DHT22;13497;48.322;16.204;2023-04-21T05:03:04;12.60;99.90
25640;DHT22;13497;48.322;16.204;2023-04-21T05:05:30;12.70;99.90
25640;DHT22;13497;48.322;16.204;2023-04-21T05:07:56;12.60;99.90
25640;DHT22;13497;48.322;16.204;2023-04-21T05:10:22;12.60;99.90
25640;DHT22;13497;48.322;16.204;2023-04-21T05:12:48;12.80;99.90
25640;DHT22;13497;48.322;16.204;2023-04-21T05:15:13;13.20;99.90
25640;DHT22;13497;48.322;16.204;2023-04-21T05:17:39;13.50;99.90
25640;DHT22;13497;48.322;16.204;2023-04-21T05:20:06;13.80;99.90
25640;DHT22;13497;48.322;16.204;2023-04-21T05:22:38;14.00;99.90
25640;DHT22;13497;48.322;16.204;2023-04-21T05:25:05;13.80;99.90
25640;DHT22;13497;48.322;16.204;2023-04-21T05:27:31;14.00;99.90
25640;DHT22;13497;48.322;16.204;2023-04-21T05:29:58;14.60;99.90
25640;DHT22;13497;48.322;16.204;2023-04-21T05:32:24;14.80;99.90
25640;DHT22;13497;48.322;16.204;2023-04-21T05:34:49;14.90;99.90
25640;DHT22;13497;48.322;16.204;2023-04-21T05:37:15;15.40;99.90
25640;DHT22;13497;48.322;16.204;2023-04-21T05:39:41;15.90;99.90
25640;DHT22;13497;48.322;16.204;2023-04-21T05:42:09;16.30;99.90
25640;DHT22;13497;48.322;16.204;2023-04-21T05:44:35;16.90;99.90
25640;DHT22;13497;48.322;16.204;2023-04-21T05:47:00;17.10;99.90
25640;DHT22;13497;48.322;16.204;2023-04-21T05:49:26;17.00;99.90
25640;DHT22;13497;48.322;16.204;2023-04-21T05:51:51;16.80;99.90
25640;DHT22;13497;48.322;16.204;2023-04-21T05:54:17;16.90;99.90
25640;DHT22;13497;48.322;16.204;2023-04-21T05:56:43;17.00;99.90
25640;DHT22;13497;48.322;16.204;2023-04-21T05:59:08;17.50;99.40
25640;DHT22;13497;48.322;16.204;2023-04-21T06:01:34;17.40;99.20
25640;DHT22;13497;48.322;16.204;2023-04-21T06:04:00;17.10;99.60
25640;DHT22;13497;48.322;16.204;2023-04-21T06:06:25;17.30;99.50
25640;DHT22;13497;48.322;16.204;2023-04-21T06:08:52;17.50;99.20
25640;DHT22;13497;48.322;16.204;2023-04-21T06:11:17;17.50;98.90
25640;DHT22;13497;48.322;16.204;2023-04-21T06:13:43;17.10;99.60
25640;DHT22;13497;48.322;16.204;2023-04-21T06:16:09;17.00;99.60
25640;DHT22;13497;48.322;16.204;2023-04-21T06:18:34;16.70;99.80
25640;DHT22;13497;48.322;16.204;2023-04-21T06:21:00;16.00;99.90
25640;DHT22;13497;48.322;16.204;2023-04-21T06:23:26;15.30;99.90
25640;DHT22;13497;48.322;16.204;2023-04-21T06:25:59;14.70;99.90
25640;DHT22;13497;48.322;16.204;2023-04-21T06:28:25;14.30;99.90
25640;DHT22;13497;48.322;16.204;2023-04-21T06:30:51;14.20;99.90
25640;DHT22;13497;48.322;16.204;2023-04-21T06:33:17;13.90;99.90
25640;DHT22;13497;48.322;16.204;2023-04-21T06:35:42;13.90;99.90
25640;DHT22;13497;48.322;16.204;2023-04-21T06:38:08;14.10;99.90
25640;DHT22;13497;48.322;16.204;2023-04-21T06:40:34;14.30;99.90
25640;DHT22;13497;48.322;16.204;2023-04-21T06:43:00;14.30;99.90
25640;DHT22;13497;48.322;16.204;2023-04-21T06:45:25;14.40;99.90
25640;DHT22;13497;48.322;16.204;2023-04-21T06:47:51;14.40;99.90
25640;DHT22;13497;48.322;16.204;2023-04-21T06:50:16;14.60;99.90
25640;DHT22;13497;48.322;16.204;2023-04-21T06:52:42;14.50;99.90
25640;DHT22;13497;48.322;16.204;2023-04-21T06:55:08;14.40;99.90
25640;DHT22;13497;48.322;16.204;2023-04-21T06:57:34;14.40;99.90
25640;DHT22;13497;48.322;16.204;2023-04-21T06:59:59;14.50;99.90
25640;DHT22;13497;48.322;16.204;2023-04-21T07:02:25;14.50;99.90
25640;DHT22;13497;48.322;16.204;2023-04-21T07:04:50;14.60;99.90
25640;DHT22;13497;48.322;16.204;2023-04-21T07:07:16;14.70;99.90
25640;DHT22;13497;48.322;16.204;2023-04-21T07:09:42;14.90;99.90
25640;DHT22;13497;48.322;16.204;2023-04-21T07:12:11;14.90;99.90
25640;DHT22;13497;48.322;16.204;2023-04-21T07:14:37;14.80;99.90
25640;DHT22;13497;48.322;16.204;2023-04-21T07:17:02;14.60;99.90
25640;DHT22;13497;48.322;16.204;2023-04-21T07:19:28;14.40;99.90
25640;DHT22;13497;48.322;16.204;2023-04-21T07:21:54;14.50;99.90
25640;DHT22;13497;48.322;16.204;2023-04-21T07:24:19;14.50;99.90
25640;DHT22;13497;48.322;16.204;2023-04-21T07:26:45;14.50;99.90
25640;DHT22;13497;48.322;16.204;2023-04-21T07:29:10;14.30;99.90
25640;DHT22;13497;48.322;16.204;2023-04-21T07:31:36;14.30;99.90
25640;DHT22;13497;48.322;16.204;2023-04-21T07:34:02;14.50;99.90
25640;DHT22;13497;48.322;16.204;2023-04-21T07:36:27;14.70;99.90
25640;DHT22;13497;48.322;16.204;2023-04-21T07:38:53;14.80;99.90
25640;DHT22;13497;48.322;16.204;2023-04-21T07:41:19;14.90;99.90
